sensor_id;sensor_type;location;lat;lon;timestamp;P1;durP1;ratioP1;P2;durP2;ratioP2
39362;SDS011;25088;43.238;23.110;2023-02-15T00:00:53;0.60;;;0.60;;
39362;SDS011;25088;43.238;23.110;2023-02-15T00:03:21;0.70;;;0.70;;
39362;SDS011;25088;43.238;23.110;2023-02-15T00:05:47;0.60;;;0.60;;
39362;SDS011;25088;43.238;23.110;2023-02-15T00:08:12;0.60;;;0.60;;
39362;SDS011;25088;43.238;23.110;2023-02-15T00:10:38;0.60;;;0.60;;
39362;SDS011;25088;43.238;23.110;2023-02-15T00:13:03;0.60;;;0.60;;
39362;SDS011;25088;43.238;23.110;2023-02-15T00:15:29;0.60;;;0.60;;
39362;SDS011;25088;43.238;23.110;2023-02-15T00:17:54;0.52;;;0.52;;
39362;SDS011;25088;43.238;23.110;2023-02-15T00:20:22;0.60;;;0.60;;
39362;SDS011;25088;43.238;23.110;2023-02-15T00:22:47;0.68;;;0.68;;
39362;SDS011;25088;43.238;23.110;2023-02-15T00:25:13;0.60;;;0.60;;
39362;SDS011;25088;43.238;23.110;2023-02-15T00:27:38;0.60;;;0.60;;
39362;SDS011;25088;43.238;23.110;2023-02-15T00:30:04;0.70;;;0.70;;
39362;SDS011;25088;43.238;23.110;2023-02-15T00:32:30;0.60;;;0.60;;
39362;SDS011;25088;43.238;23.110;2023-02-15T00:34:56;0.70;;;0.70;;
39362;SDS011;25088;43.238;23.110;2023-02-15T00:37:21;0.60;;;0.60;;
39362;SDS011;25088;43.238;23.110;2023-02-15T00:39:47;0.60;;;0.60;;
39362;SDS011;25088;43.238;23.110;2023-02-15T00:42:12;0.70;;;0.70;;
39362;SDS011;25088;43.238;23.110;2023-02-15T00:44:39;0.60;;;0.60;;
39362;SDS011;25088;43.238;23.110;2023-02-15T00:47:04;0.60;;;0.60;;
39362;SDS011;25088;43.238;23.110;2023-02-15T00:49:30;0.60;;;0.60;;
39362;SDS011;25088;43.238;23.110;2023-02-15T00:51:55;0.60;;;0.60;;
39362;SDS011;25088;43.238;23.110;2023-02-15T00:54:21;0.60;;;0.60;;
39362;SDS011;25088;43.238;23.110;2023-02-15T00:56:46;0.60;;;0.60;;
39362;SDS011;25088;43.238;23.110;2023-02-15T00:59:12;0.60;;;0.60;;
39362;SDS011;25088;43.238;23.110;2023-02-15T01:01:37;0.60;;;0.60;;
39362;SDS011;25088;43.238;23.110;2023-02-15T01:04:03;0.60;;;0.60;;
39362;SDS011;25088;43.238;23.110;2023-02-15T01:06:28;0.60;;;0.60;;
39362;SDS011;25088;43.238;23.110;2023-02-15T01:08:54;0.50;;;0.50;;
39362;SDS011;25088;43.238;23.110;2023-02-15T01:11:20;0.55;;;0.55;;
39362;SDS011;25088;43.238;23.110;2023-02-15T01:13:51;0.60;;;0.60;;
39362;SDS011;25088;43.238;23.110;2023-02-15T01:16:18;0.60;;;0.60;;
39362;SDS011;25088;43.238;23.110;2023-02-15T01:18:44;0.60;;;0.60;;
39362;SDS011;25088;43.238;23.110;2023-02-15T01:21:13;0.60;;;0.60;;
39362;SDS011;25088;43.238;23.110;2023-02-15T01:23:41;0.60;;;0.60;;
39362;SDS011;25088;43.238;23.110;2023-02-15T01:26:07;0.60;;;0.60;;
39362;SDS011;25088;43.238;23.110;2023-02-15T01:28:34;0.60;;;0.60;;
39362;SDS011;25088;43.238;23.110;2023-02-15T01:31:04;0.60;;;0.60;;
39362;SDS011;25088;43.238;23.110;2023-02-15T01:33:30;0.70;;;0.70;;
39362;SDS011;25088;43.238;23.110;2023-02-15T01:35:56;0.60;;;0.60;;
39362;SDS011;25088;43.238;23.110;2023-02-15T01:38:23;0.60;;;0.60;;
39362;SDS011;25088;43.238;23.110;2023-02-15T01:40:51;0.60;;;0.60;;
39362;SDS011;25088;43.238;23.110;2023-02-15T01:43:17;0.60;;;0.60;;
39362;SDS011;25088;43.238;23.110;2023-02-15T01:45:43;0.70;;;0.70;;
39362;SDS011;25088;43.238;23.110;2023-02-15T01:48:20;0.60;;;0.60;;
39362;SDS011;25088;43.238;23.110;2023-02-15T01:50:52;0.60;;;0.60;;
39362;SDS011;25088;43.238;23.110;2023-02-15T01:53:23;0.60;;;0.60;;
39362;SDS011;25088;43.238;23.110;2023-02-15T01:56:01;0.60;;;0.60;;
39362;SDS011;25088;43.238;23.110;2023-02-15T01:58:30;0.60;;;0.60;;
39362;SDS011;25088;43.238;23.110;2023-02-15T02:00:59;0.60;;;0.60;;
39362;SDS011;25088;43.238;23.110;2023-02-15T02:06:32;0.60;;;0.60;;
39362;SDS011;25088;43.238;23.110;2023-02-15T02:09:00;0.63;;;0.63;;
39362;SDS011;25088;43.238;23.110;2023-02-15T02:11:27;0.60;;;0.60;;
39362;SDS011;25088;43.238;23.110;2023-02-15T02:13:52;0.60;;;0.60;;
39362;SDS011;25088;43.238;23.110;2023-02-15T02:27:56;0.65;;;0.65;;
39362;SDS011;25088;43.238;23.110;2023-02-15T02:38:28;0.80;;;0.80;;
39362;SDS011;25088;43.238;23.110;2023-02-15T02:49:16;0.70;;;0.70;;
39362;SDS011;25088;43.238;23.110;2023-02-15T02:51:42;0.63;;;0.63;;
39362;SDS011;25088;43.238;23.110;2023-02-15T02:54:07;0.70;;;0.70;;
39362;SDS011;25088;43.238;23.110;2023-02-15T02:56:35;0.60;;;0.60;;
39362;SDS011;25088;43.238;23.110;2023-02-15T02:59:37;0.70;;;0.70;;
39362;SDS011;25088;43.238;23.110;2023-02-15T03:02:00;0.70;;;0.70;;
39362;SDS011;25088;43.238;23.110;2023-02-15T03:04:35;0.60;;;0.60;;
39362;SDS011;25088;43.238;23.110;2023-02-15T03:07:06;0.60;;;0.60;;
39362;SDS011;25088;43.238;23.110;2023-02-15T03:09:36;0.60;;;0.60;;
39362;SDS011;25088;43.238;23.110;2023-02-15T03:12:11;0.77;;;0.77;;
39362;SDS011;25088;43.238;23.110;2023-02-15T03:14:38;0.70;;;0.70;;
39362;SDS011;25088;43.238;23.110;2023-02-15T03:17:05;0.60;;;0.60;;
39362;SDS011;25088;43.238;23.110;2023-02-15T03:19:33;0.65;;;0.65;;
39362;SDS011;25088;43.238;23.110;2023-02-15T03:22:06;0.70;;;0.70;;
39362;SDS011;25088;43.238;23.110;2023-02-15T03:24:43;0.70;;;0.70;;
39362;SDS011;25088;43.238;23.110;2023-02-15T03:27:14;0.70;;;0.70;;
39362;SDS011;25088;43.238;23.110;2023-02-15T03:29:42;0.60;;;0.60;;
39362;SDS011;25088;43.238;23.110;2023-02-15T03:32:15;0.70;;;0.70;;
39362;SDS011;25088;43.238;23.110;2023-02-15T03:34:42;0.60;;;0.60;;
39362;SDS011;25088;43.238;23.110;2023-02-15T03:37:10;0.70;;;0.70;;
39362;SDS011;25088;43.238;23.110;2023-02-15T03:42:49;0.70;;;0.70;;
39362;SDS011;25088;43.238;23.110;2023-02-15T03:45:24;0.70;;;0.70;;
39362;SDS011;25088;43.238;23.110;2023-02-15T03:47:52;0.70;;;0.70;;
39362;SDS011;25088;43.238;23.110;2023-02-15T03:50:21;0.60;;;0.60;;
39362;SDS011;25088;43.238;23.110;2023-02-15T03:53:11;0.65;;;0.65;;
39362;SDS011;25088;43.238;23.110;2023-02-15T03:55:40;0.68;;;0.68;;
39362;SDS011;25088;43.238;23.110;2023-02-15T03:58:06;0.70;;;0.70;;
39362;SDS011;25088;43.238;23.110;2023-02-15T04:01:02;0.60;;;0.60;;
39362;SDS011;25088;43.238;23.110;2023-02-15T04:06:36;0.70;;;0.70;;
39362;SDS011;25088;43.238;23.110;2023-02-15T04:09:01;0.60;;;0.60;;
39362;SDS011;25088;43.238;23.110;2023-02-15T04:11:45;0.60;;;0.60;;
39362;SDS011;25088;43.238;23.110;2023-02-15T04:14:11;0.60;;;0.60;;
39362;SDS011;25088;43.238;23.110;2023-02-15T04:16:55;0.68;;;0.68;;
39362;SDS011;25088;43.238;23.110;2023-02-15T04:19:20;0.70;;;0.70;;
39362;SDS011;25088;43.238;23.110;2023-02-15T04:22:04;0.60;;;0.60;;
39362;SDS011;25088;43.238;23.110;2023-02-15T04:24:48;0.60;;;0.60;;
39362;SDS011;25088;43.238;23.110;2023-02-15T04:27:32;0.73;;;0.73;;
39362;SDS011;25088;43.238;23.110;2023-02-15T04:29:58;0.63;;;0.63;;
39362;SDS011;25088;43.238;23.110;2023-02-15T04:32:23;0.60;;;0.60;;
39362;SDS011;25088;43.238;23.110;2023-02-15T04:34:49;0.60;;;0.60;;
39362;SDS011;25088;43.238;23.110;2023-02-15T04:37:14;0.60;;;0.60;;
39362;SDS011;25088;43.238;23.110;2023-02-15T04:39:40;0.70;;;0.70;;
39362;SDS011;25088;43.238;23.110;2023-02-15T04:42:05;0.68;;;0.68;;
39362;SDS011;25088;43.238;23.110;2023-02-15T04:44:31;0.60;;;0.60;;
39362;SDS011;25088;43.238;23.110;2023-02-15T04:46:56;0.70;;;0.70;;
39362;SDS011;25088;43.238;23.110;2023-02-15T04:49:22;0.70;;;0.70;;
39362;SDS011;25088;43.238;23.110;2023-02-15T04:51:47;0.70;;;0.70;;
39362;SDS011;25088;43.238;23.110;2023-02-15T04:54:12;0.70;;;0.70;;
39362;SDS011;25088;43.238;23.110;2023-02-15T04:56:39;0.60;;;0.60;;
39362;SDS011;25088;43.238;23.110;2023-02-15T04:59:04;0.77;;;0.77;;
39362;SDS011;25088;43.238;23.110;2023-02-15T05:01:30;0.60;;;0.60;;
39362;SDS011;25088;43.238;23.110;2023-02-15T05:03:56;0.60;;;0.60;;
39362;SDS011;25088;43.238;23.110;2023-02-15T05:06:21;0.60;;;0.60;;
39362;SDS011;25088;43.238;23.110;2023-02-15T05:08:47;0.70;;;0.70;;
39362;SDS011;25088;43.238;23.110;2023-02-15T05:11:12;0.70;;;0.70;;
39362;SDS011;25088;43.238;23.110;2023-02-15T05:13:38;0.75;;;0.75;;
39362;SDS011;25088;43.238;23.110;2023-02-15T05:16:03;0.73;;;0.73;;
39362;SDS011;25088;43.238;23.110;2023-02-15T05:18:29;0.60;;;0.60;;
39362;SDS011;25088;43.238;23.110;2023-02-15T05:20:54;0.60;;;0.60;;
39362;SDS011;25088;43.238;23.110;2023-02-15T05:23:20;0.70;;;0.70;;
39362;SDS011;25088;43.238;23.110;2023-02-15T05:25:46;0.60;;;0.60;;
39362;SDS011;25088;43.238;23.110;2023-02-15T05:28:52;0.63;;;0.63;;
39362;SDS011;25088;43.238;23.110;2023-02-15T05:31:18;0.60;;;0.60;;
39362;SDS011;25088;43.238;23.110;2023-02-15T05:33:44;0.60;;;0.60;;
39362;SDS011;25088;43.238;23.110;2023-02-15T05:36:10;0.60;;;0.60;;
39362;SDS011;25088;43.238;23.110;2023-02-15T05:38:36;0.68;;;0.68;;
39362;SDS011;25088;43.238;23.110;2023-02-15T05:41:02;0.73;;;0.73;;
39362;SDS011;25088;43.238;23.110;2023-02-15T05:43:29;0.70;;;0.70;;
39362;SDS011;25088;43.238;23.110;2023-02-15T05:45:55;0.60;;;0.60;;
39362;SDS011;25088;43.238;23.110;2023-02-15T05:48:21;0.65;;;0.65;;
39362;SDS011;25088;43.238;23.110;2023-02-15T05:51:02;0.70;;;0.70;;
39362;SDS011;25088;43.238;23.110;2023-02-15T05:53:32;0.60;;;0.60;;
39362;SDS011;25088;43.238;23.110;2023-02-15T05:55:59;0.70;;;0.70;;
39362;SDS011;25088;43.238;23.110;2023-02-15T05:58:29;0.60;;;0.60;;
39362;SDS011;25088;43.238;23.110;2023-02-15T06:00:56;0.70;;;0.70;;
39362;SDS011;25088;43.238;23.110;2023-02-15T06:03:22;0.73;;;0.73;;
39362;SDS011;25088;43.238;23.110;2023-02-15T06:05:50;0.70;;;0.70;;
39362;SDS011;25088;43.238;23.110;2023-02-15T06:08:16;0.65;;;0.65;;
39362;SDS011;25088;43.238;23.110;2023-02-15T06:10:42;0.60;;;0.60;;
39362;SDS011;25088;43.238;23.110;2023-02-15T06:13:07;0.63;;;0.63;;
39362;SDS011;25088;43.238;23.110;2023-02-15T06:15:33;0.50;;;0.50;;
39362;SDS011;25088;43.238;23.110;2023-02-15T06:17:58;0.52;;;0.52;;
39362;SDS011;25088;43.238;23.110;2023-02-15T06:20:24;0.50;;;0.50;;
39362;SDS011;25088;43.238;23.110;2023-02-15T06:22:50;0.50;;;0.50;;
39362;SDS011;25088;43.238;23.110;2023-02-15T06:25:15;0.50;;;0.50;;
39362;SDS011;25088;43.238;23.110;2023-02-15T06:27:41;0.50;;;0.50;;
39362;SDS011;25088;43.238;23.110;2023-02-15T06:30:08;0.50;;;0.50;;
39362;SDS011;25088;43.238;23.110;2023-02-15T06:32:34;0.50;;;0.50;;
39362;SDS011;25088;43.238;23.110;2023-02-15T06:35:00;0.50;;;0.50;;
39362;SDS011;25088;43.238;23.110;2023-02-15T06:37:26;0.45;;;0.45;;
39362;SDS011;25088;43.238;23.110;2023-02-15T06:39:51;0.50;;;0.50;;
39362;SDS011;25088;43.238;23.110;2023-02-15T06:42:17;0.50;;;0.50;;
39362;SDS011;25088;43.238;23.110;2023-02-15T06:44:43;0.45;;;0.45;;
39362;SDS011;25088;43.238;23.110;2023-02-15T06:47:09;0.40;;;0.40;;
39362;SDS011;25088;43.238;23.110;2023-02-15T06:49:35;0.40;;;0.40;;
39362;SDS011;25088;43.238;23.110;2023-02-15T06:52:01;0.40;;;0.40;;
39362;SDS011;25088;43.238;23.110;2023-02-15T06:54:26;0.40;;;0.40;;
39362;SDS011;25088;43.238;23.110;2023-02-15T06:56:52;0.40;;;0.40;;
39362;SDS011;25088;43.238;23.110;2023-02-15T06:59:17;0.40;;;0.40;;
39362;SDS011;25088;43.238;23.110;2023-02-15T07:01:42;0.30;;;0.30;;
39362;SDS011;25088;43.238;23.110;2023-02-15T07:04:08;0.30;;;0.30;;
39362;SDS011;25088;43.238;23.110;2023-02-15T07:06:34;0.30;;;0.30;;
39362;SDS011;25088;43.238;23.110;2023-02-15T07:09:00;0.40;;;0.40;;
39362;SDS011;25088;43.238;23.110;2023-02-15T07:11:26;0.30;;;0.30;;
39362;SDS011;25088;43.238;23.110;2023-02-15T07:14:09;0.28;;;0.28;;
39362;SDS011;25088;43.238;23.110;2023-02-15T07:16:35;0.30;;;0.30;;
39362;SDS011;25088;43.238;23.110;2023-02-15T07:19:00;0.30;;;0.30;;
39362;SDS011;25088;43.238;23.110;2023-02-15T07:21:27;0.30;;;0.30;;
39362;SDS011;25088;43.238;23.110;2023-02-15T07:23:55;0.30;;;0.30;;
39362;SDS011;25088;43.238;23.110;2023-02-15T07:26:21;0.30;;;0.30;;
39362;SDS011;25088;43.238;23.110;2023-02-15T07:28:47;0.25;;;0.25;;
39362;SDS011;25088;43.238;23.110;2023-02-15T07:31:12;0.20;;;0.20;;
39362;SDS011;25088;43.238;23.110;2023-02-15T07:33:38;0.20;;;0.20;;
39362;SDS011;25088;43.238;23.110;2023-02-15T07:36:03;0.20;;;0.20;;
39362;SDS011;25088;43.238;23.110;2023-02-15T07:38:33;0.20;;;0.20;;
39362;SDS011;25088;43.238;23.110;2023-02-15T07:41:01;0.20;;;0.20;;
39362;SDS011;25088;43.238;23.110;2023-02-15T07:43:28;0.20;;;0.20;;
39362;SDS011;25088;43.238;23.110;2023-02-15T07:45:58;0.20;;;0.20;;
39362;SDS011;25088;43.238;23.110;2023-02-15T07:48:25;0.10;;;0.10;;
39362;SDS011;25088;43.238;23.110;2023-02-15T07:50:50;0.20;;;0.20;;
39362;SDS011;25088;43.238;23.110;2023-02-15T07:53:15;0.10;;;0.10;;
39362;SDS011;25088;43.238;23.110;2023-02-15T07:55:41;0.10;;;0.10;;
39362;SDS011;25088;43.238;23.110;2023-02-15T07:58:06;0.10;;;0.10;;
39362;SDS011;25088;43.238;23.110;2023-02-15T08:00:32;0.10;;;0.10;;
39362;SDS011;25088;43.238;23.110;2023-02-15T08:03:17;0.10;;;0.10;;
39362;SDS011;25088;43.238;23.110;2023-02-15T08:05:43;0.10;;;0.10;;
39362;SDS011;25088;43.238;23.110;2023-02-15T08:08:10;0.10;;;0.10;;
39362;SDS011;25088;43.238;23.110;2023-02-15T08:10:59;0.10;;;0.10;;
39362;SDS011;25088;43.238;23.110;2023-02-15T08:13:46;0.10;;;0.10;;
39362;SDS011;25088;43.238;23.110;2023-02-15T08:16:22;0.10;;;0.10;;
39362;SDS011;25088;43.238;23.110;2023-02-15T08:18:49;0.10;;;0.10;;
39362;SDS011;25088;43.238;23.110;2023-02-15T08:21:16;0.10;;;0.10;;
39362;SDS011;25088;43.238;23.110;2023-02-15T08:23:41;0.10;;;0.10;;
39362;SDS011;25088;43.238;23.110;2023-02-15T08:26:07;0.10;;;0.10;;
39362;SDS011;25088;43.238;23.110;2023-02-15T08:28:33;0.10;;;0.10;;
39362;SDS011;25088;43.238;23.110;2023-02-15T08:31:08;0.10;;;0.10;;
39362;SDS011;25088;43.238;23.110;2023-02-15T08:33:35;0.10;;;0.10;;
39362;SDS011;25088;43.238;23.110;2023-02-15T08:36:06;0.10;;;0.10;;
39362;SDS011;25088;43.238;23.110;2023-02-15T08:38:33;0.10;;;0.10;;
39362;SDS011;25088;43.238;23.110;2023-02-15T08:41:13;0.10;;;0.10;;
39362;SDS011;25088;43.238;23.110;2023-02-15T08:43:38;0.10;;;0.10;;
39362;SDS011;25088;43.238;23.110;2023-02-15T08:46:05;0.10;;;0.10;;
39362;SDS011;25088;43.238;23.110;2023-02-15T08:48:31;0.10;;;0.10;;
39362;SDS011;25088;43.238;23.110;2023-02-15T08:50:56;0.10;;;0.10;;
39362;SDS011;25088;43.238;23.110;2023-02-15T08:53:22;0.10;;;0.10;;
39362;SDS011;25088;43.238;23.110;2023-02-15T08:55:54;0.10;;;0.10;;
39362;SDS011;25088;43.238;23.110;2023-02-15T08:58:21;0.10;;;0.10;;
39362;SDS011;25088;43.238;23.110;2023-02-15T09:00:47;0.10;;;0.10;;
39362;SDS011;25088;43.238;23.110;2023-02-15T09:03:12;0.10;;;0.10;;
39362;SDS011;25088;43.238;23.110;2023-02-15T09:05:38;0.10;;;0.10;;
39362;SDS011;25088;43.238;23.110;2023-02-15T09:08:03;0.05;;;0.05;;
39362;SDS011;25088;43.238;23.110;2023-02-15T09:10:29;0.10;;;0.10;;
39362;SDS011;25088;43.238;23.110;2023-02-15T09:12:54;0.10;;;0.10;;
39362;SDS011;25088;43.238;23.110;2023-02-15T09:15:20;0.00;;;0.00;;
39362;SDS011;25088;43.238;23.110;2023-02-15T09:17:45;0.10;;;0.10;;
39362;SDS011;25088;43.238;23.110;2023-02-15T09:20:11;0.10;;;0.10;;
39362;SDS011;25088;43.238;23.110;2023-02-15T09:22:36;0.00;;;0.00;;
39362;SDS011;25088;43.238;23.110;2023-02-15T09:25:02;0.10;;;0.10;;
39362;SDS011;25088;43.238;23.110;2023-02-15T09:27:29;0.10;;;0.10;;
39362;SDS011;25088;43.238;23.110;2023-02-15T09:29:54;0.10;;;0.10;;
39362;SDS011;25088;43.238;23.110;2023-02-15T09:32:20;0.10;;;0.10;;
39362;SDS011;25088;43.238;23.110;2023-02-15T09:34:47;0.00;;;0.00;;
39362;SDS011;25088;43.238;23.110;2023-02-15T09:37:12;0.10;;;0.10;;
39362;SDS011;25088;43.238;23.110;2023-02-15T09:39:39;0.00;;;0.00;;
39362;SDS011;25088;43.238;23.110;2023-02-15T09:55:55;0.10;;;0.10;;
39362;SDS011;25088;43.238;23.110;2023-02-15T10:12:36;0.00;;;0.00;;
39362;SDS011;25088;43.238;23.110;2023-02-15T10:26:18;0.00;;;0.00;;
39362;SDS011;25088;43.238;23.110;2023-02-15T10:43:14;0.00;;;0.00;;
39362;SDS011;25088;43.238;23.110;2023-02-15T10:49:04;0.00;;;0.00;;
39362;SDS011;25088;43.238;23.110;2023-02-15T10:51:31;0.00;;;0.00;;
39362;SDS011;25088;43.238;23.110;2023-02-15T11:08:07;0.10;;;0.10;;
39362;SDS011;25088;43.238;23.110;2023-02-15T11:10:37;0.10;;;0.10;;
39362;SDS011;25088;43.238;23.110;2023-02-15T11:13:14;0.10;;;0.10;;
39362;SDS011;25088;43.238;23.110;2023-02-15T11:15:44;0.00;;;0.00;;
39362;SDS011;25088;43.238;23.110;2023-02-15T11:18:16;0.10;;;0.10;;
39362;SDS011;25088;43.238;23.110;2023-02-15T11:23:14;0.10;;;0.10;;
39362;SDS011;25088;43.238;23.110;2023-02-15T11:25:43;0.10;;;0.10;;
39362;SDS011;25088;43.238;23.110;2023-02-15T11:28:18;0.10;;;0.10;;
39362;SDS011;25088;43.238;23.110;2023-02-15T11:30:53;0.10;;;0.10;;
39362;SDS011;25088;43.238;23.110;2023-02-15T11:33:29;0.10;;;0.10;;
39362;SDS011;25088;43.238;23.110;2023-02-15T11:36:01;0.00;;;0.00;;
39362;SDS011;25088;43.238;23.110;2023-02-15T11:38:33;0.00;;;0.00;;
39362;SDS011;25088;43.238;23.110;2023-02-15T11:41:03;0.10;;;0.10;;
39362;SDS011;25088;43.238;23.110;2023-02-15T11:43:39;0.10;;;0.10;;
39362;SDS011;25088;43.238;23.110;2023-02-15T11:46:11;0.00;;;0.00;;
39362;SDS011;25088;43.238;23.110;2023-02-15T11:48:37;0.00;;;0.00;;
39362;SDS011;25088;43.238;23.110;2023-02-15T11:51:04;0.00;;;0.00;;
39362;SDS011;25088;43.238;23.110;2023-02-15T11:53:33;0.00;;;0.00;;
39362;SDS011;25088;43.238;23.110;2023-02-15T11:56:01;0.00;;;0.00;;
39362;SDS011;25088;43.238;23.110;2023-02-15T12:01:23;0.10;;;0.10;;
39362;SDS011;25088;43.238;23.110;2023-02-15T12:03:56;0.00;;;0.00;;
39362;SDS011;25088;43.238;23.110;2023-02-15T12:06:30;0.00;;;0.00;;
39362;SDS011;25088;43.238;23.110;2023-02-15T12:09:01;0.00;;;0.00;;
39362;SDS011;25088;43.238;23.110;2023-02-15T12:11:33;0.00;;;0.00;;
39362;SDS011;25088;43.238;23.110;2023-02-15T12:14:05;0.00;;;0.00;;
39362;SDS011;25088;43.238;23.110;2023-02-15T12:22:05;0.00;;;0.00;;
39362;SDS011;25088;43.238;23.110;2023-02-15T12:24:45;0.03;;;0.03;;
39362;SDS011;25088;43.238;23.110;2023-02-15T12:27:16;0.00;;;0.00;;
39362;SDS011;25088;43.238;23.110;2023-02-15T12:29:47;0.00;;;0.00;;
39362;SDS011;25088;43.238;23.110;2023-02-15T12:32:26;0.00;;;0.00;;
39362;SDS011;25088;43.238;23.110;2023-02-15T12:35:08;0.00;;;0.00;;
39362;SDS011;25088;43.238;23.110;2023-02-15T12:37:38;0.00;;;0.00;;
39362;SDS011;25088;43.238;23.110;2023-02-15T12:43:00;0.00;;;0.00;;
39362;SDS011;25088;43.238;23.110;2023-02-15T12:45:34;0.00;;;0.00;;
39362;SDS011;25088;43.238;23.110;2023-02-15T12:48:08;0.00;;;0.00;;
39362;SDS011;25088;43.238;23.110;2023-02-15T12:50:34;0.00;;;0.00;;
39362;SDS011;25088;43.238;23.110;2023-02-15T12:58:44;0.00;;;0.00;;
39362;SDS011;25088;43.238;23.110;2023-02-15T13:01:20;0.10;;;0.10;;
39362;SDS011;25088;43.238;23.110;2023-02-15T13:06:26;0.00;;;0.00;;
39362;SDS011;25088;43.238;23.110;2023-02-15T13:08:54;0.00;;;0.00;;
39362;SDS011;25088;43.238;23.110;2023-02-15T13:11:28;0.10;;;0.10;;
39362;SDS011;25088;43.238;23.110;2023-02-15T13:14:03;0.00;;;0.00;;
39362;SDS011;25088;43.238;23.110;2023-02-15T13:16:41;0.05;;;0.05;;
39362;SDS011;25088;43.238;23.110;2023-02-15T13:19:13;0.00;;;0.00;;
39362;SDS011;25088;43.238;23.110;2023-02-15T13:21:44;0.00;;;0.00;;
39362;SDS011;25088;43.238;23.110;2023-02-15T13:24:21;0.00;;;0.00;;
39362;SDS011;25088;43.238;23.110;2023-02-15T13:26:50;0.00;;;0.00;;
39362;SDS011;25088;43.238;23.110;2023-02-15T13:29:28;0.00;;;0.00;;
39362;SDS011;25088;43.238;23.110;2023-02-15T13:31:57;0.00;;;0.00;;
39362;SDS011;25088;43.238;23.110;2023-02-15T13:34:36;0.00;;;0.00;;
39362;SDS011;25088;43.238;23.110;2023-02-15T13:42:28;0.00;;;0.00;;
39362;SDS011;25088;43.238;23.110;2023-02-15T13:53:16;0.00;;;0.00;;
39362;SDS011;25088;43.238;23.110;2023-02-15T14:01:36;0.00;;;0.00;;
39362;SDS011;25088;43.238;23.110;2023-02-15T14:04:17;0.00;;;0.00;;
39362;SDS011;25088;43.238;23.110;2023-02-15T14:09:40;0.00;;;0.00;;
39362;SDS011;25088;43.238;23.110;2023-02-15T14:15:13;0.00;;;0.00;;
39362;SDS011;25088;43.238;23.110;2023-02-15T14:18:15;0.00;;;0.00;;
39362;SDS011;25088;43.238;23.110;2023-02-15T14:23:41;0.00;;;0.00;;
39362;SDS011;25088;43.238;23.110;2023-02-15T14:31:43;0.00;;;0.00;;
39362;SDS011;25088;43.238;23.110;2023-02-15T14:34:17;0.00;;;0.00;;
39362;SDS011;25088;43.238;23.110;2023-02-15T14:36:50;0.00;;;0.00;;
39362;SDS011;25088;43.238;23.110;2023-02-15T14:42:20;0.00;;;0.00;;
39362;SDS011;25088;43.238;23.110;2023-02-15T14:47:45;0.00;;;0.00;;
39362;SDS011;25088;43.238;23.110;2023-02-15T14:50:50;0.00;;;0.00;;
39362;SDS011;25088;43.238;23.110;2023-02-15T15:01:24;0.00;;;0.00;;
39362;SDS011;25088;43.238;23.110;2023-02-15T15:03:56;0.00;;;0.00;;
39362;SDS011;25088;43.238;23.110;2023-02-15T15:06:30;0.00;;;0.00;;
39362;SDS011;25088;43.238;23.110;2023-02-15T15:11:49;0.10;;;0.10;;
39362;SDS011;25088;43.238;23.110;2023-02-15T15:17:00;0.10;;;0.10;;
39362;SDS011;25088;43.238;23.110;2023-02-15T15:22:20;0.20;;;0.20;;
39362;SDS011;25088;43.238;23.110;2023-02-15T15:24:53;0.20;;;0.20;;
39362;SDS011;25088;43.238;23.110;2023-02-15T15:32:56;0.20;;;0.20;;
39362;SDS011;25088;43.238;23.110;2023-02-15T15:49:30;0.20;;;0.20;;
39362;SDS011;25088;43.238;23.110;2023-02-15T15:52:01;0.20;;;0.20;;
39362;SDS011;25088;43.238;23.110;2023-02-15T15:54:28;0.20;;;0.20;;
39362;SDS011;25088;43.238;23.110;2023-02-15T15:56:59;0.20;;;0.20;;
39362;SDS011;25088;43.238;23.110;2023-02-15T15:59:28;0.20;;;0.20;;
39362;SDS011;25088;43.238;23.110;2023-02-15T16:01:56;0.30;;;0.30;;
39362;SDS011;25088;43.238;23.110;2023-02-15T16:04:29;0.30;;;0.30;;
39362;SDS011;25088;43.238;23.110;2023-02-15T16:09:56;0.30;;;0.30;;
39362;SDS011;25088;43.238;23.110;2023-02-15T16:12:25;0.30;;;0.30;;
39362;SDS011;25088;43.238;23.110;2023-02-15T16:14:52;0.30;;;0.30;;
39362;SDS011;25088;43.238;23.110;2023-02-15T16:17:20;0.20;;;0.20;;
39362;SDS011;25088;43.238;23.110;2023-02-15T16:19:49;0.30;;;0.30;;
39362;SDS011;25088;43.238;23.110;2023-02-15T16:22:19;0.30;;;0.30;;
39362;SDS011;25088;43.238;23.110;2023-02-15T16:27:41;0.30;;;0.30;;
39362;SDS011;25088;43.238;23.110;2023-02-15T16:33:16;0.35;;;0.35;;
39362;SDS011;25088;43.238;23.110;2023-02-15T16:35:57;0.30;;;0.30;;
39362;SDS011;25088;43.238;23.110;2023-02-15T16:41:08;0.30;;;0.30;;
39362;SDS011;25088;43.238;23.110;2023-02-15T16:43:36;0.40;;;0.40;;
39362;SDS011;25088;43.238;23.110;2023-02-15T16:46:04;0.30;;;0.30;;
39362;SDS011;25088;43.238;23.110;2023-02-15T16:48:31;0.30;;;0.30;;
39362;SDS011;25088;43.238;23.110;2023-02-15T16:50:58;0.40;;;0.40;;
39362;SDS011;25088;43.238;23.110;2023-02-15T16:53:28;0.30;;;0.30;;
39362;SDS011;25088;43.238;23.110;2023-02-15T16:55:55;0.30;;;0.30;;
39362;SDS011;25088;43.238;23.110;2023-02-15T16:58:28;0.40;;;0.40;;
39362;SDS011;25088;43.238;23.110;2023-02-15T17:01:08;0.40;;;0.40;;
39362;SDS011;25088;43.238;23.110;2023-02-15T17:03:36;0.40;;;0.40;;
39362;SDS011;25088;43.238;23.110;2023-02-15T17:06:03;0.30;;;0.30;;
39362;SDS011;25088;43.238;23.110;2023-02-15T17:13:24;0.32;;;0.32;;
39362;SDS011;25088;43.238;23.110;2023-02-15T17:18:29;0.40;;;0.40;;
39362;SDS011;25088;43.238;23.110;2023-02-15T17:20:59;0.40;;;0.40;;
39362;SDS011;25088;43.238;23.110;2023-02-15T17:25:57;0.40;;;0.40;;
39362;SDS011;25088;43.238;23.110;2023-02-15T17:28:26;0.40;;;0.40;;
39362;SDS011;25088;43.238;23.110;2023-02-15T17:30:55;0.40;;;0.40;;
39362;SDS011;25088;43.238;23.110;2023-02-15T17:33:35;0.40;;;0.40;;
39362;SDS011;25088;43.238;23.110;2023-02-15T17:38:34;0.40;;;0.40;;
39362;SDS011;25088;43.238;23.110;2023-02-15T17:41:01;0.40;;;0.40;;
39362;SDS011;25088;43.238;23.110;2023-02-15T17:43:27;0.40;;;0.40;;
39362;SDS011;25088;43.238;23.110;2023-02-15T17:45:52;0.40;;;0.40;;
39362;SDS011;25088;43.238;23.110;2023-02-15T17:50:47;0.45;;;0.45;;
39362;SDS011;25088;43.238;23.110;2023-02-15T17:53:13;0.40;;;0.40;;
39362;SDS011;25088;43.238;23.110;2023-02-15T17:55:43;0.43;;;0.43;;
39362;SDS011;25088;43.238;23.110;2023-02-15T17:58:11;0.40;;;0.40;;
39362;SDS011;25088;43.238;23.110;2023-02-15T18:00:44;0.40;;;0.40;;
39362;SDS011;25088;43.238;23.110;2023-02-15T18:03:38;0.40;;;0.40;;
39362;SDS011;25088;43.238;23.110;2023-02-15T18:06:28;0.40;;;0.40;;
39362;SDS011;25088;43.238;23.110;2023-02-15T18:09:13;0.40;;;0.40;;
39362;SDS011;25088;43.238;23.110;2023-02-15T18:11:58;0.40;;;0.40;;
39362;SDS011;25088;43.238;23.110;2023-02-15T18:14:24;0.50;;;0.50;;
39362;SDS011;25088;43.238;23.110;2023-02-15T18:16:50;0.40;;;0.40;;
39362;SDS011;25088;43.238;23.110;2023-02-15T18:19:25;0.40;;;0.40;;
39362;SDS011;25088;43.238;23.110;2023-02-15T18:21:51;0.40;;;0.40;;
39362;SDS011;25088;43.238;23.110;2023-02-15T18:24:23;0.40;;;0.40;;
39362;SDS011;25088;43.238;23.110;2023-02-15T18:26:51;0.40;;;0.40;;
39362;SDS011;25088;43.238;23.110;2023-02-15T18:29:18;0.40;;;0.40;;
39362;SDS011;25088;43.238;23.110;2023-02-15T18:31:44;0.40;;;0.40;;
39362;SDS011;25088;43.238;23.110;2023-02-15T18:34:48;0.50;;;0.50;;
39362;SDS011;25088;43.238;23.110;2023-02-15T18:37:13;0.40;;;0.40;;
39362;SDS011;25088;43.238;23.110;2023-02-15T18:39:45;0.40;;;0.40;;